Time;durP1;ratioP1;P1;durP2;ratioP2;P2;SDS_P1;SDS_P2;PMS_P1;PMS_P2;Temp;Humidity;BMP_temperature;BMP_pressure;BME280_temperature;BME280_humidity;BME280_pressure;Samples;Min_cycle;Max_cycle;Signal;HPM_P1;HPM_P2
2022/12/11 00:02:09;;;;;;;0.00;0.00;;;;;;;-1.46;100.00;98120.16;4990609;28;20250;-53
2022/12/11 00:04:35;;;;;;;0.03;0.03;;;;;;;-1.44;100.00;98120.91;4988322;28;20242;-57
2022/12/11 00:07:02;;;;;;;0.10;0.10;;;;;;;-1.42;100.00;98115.69;4986873;28;20235;-53
2022/12/11 00:09:29;;;;;;;0.00;0.00;;;;;;;-1.38;100.00;98115.44;4988765;28;20281;-54
2022/12/11 00:11:57;;;;;;;0.00;0.00;;;;;;;-1.40;100.00;98119.00;4986407;28;20238;-56
2022/12/11 00:14:23;;;;;;;0.00;0.00;;;;;;;-1.35;100.00;98122.09;4986828;28;20626;-54
2022/12/11 00:16:50;;;;;;;0.00;0.00;;;;;;;-1.35;100.00;98106.75;4985222;28;20231;-53
2022/12/11 00:19:17;;;;;;;0.00;0.00;;;;;;;-1.35;100.00;98105.03;4986205;28;20227;-55
2022/12/11 00:21:44;;;;;;;0.00;0.00;;;;;;;-1.32;100.00;98114.25;4987078;28;20313;-55
2022/12/11 00:24:11;;;;;;;0.00;0.00;;;;;;;-1.28;100.00;98110.59;4988698;28;20597;-55
2022/12/11 00:26:38;;;;;;;0.03;0.03;;;;;;;-1.21;100.00;98116.22;4988026;28;20302;-56
2022/12/11 00:29:07;;;;;;;0.00;0.00;;;;;;;-1.25;100.00;98109.63;4986889;28;20246;-55
2022/12/11 00:31:34;;;;;;;0.00;0.00;;;;;;;-1.35;100.00;98119.53;4988655;28;21146;-56
2022/12/11 00:34:02;;;;;;;0.00;0.00;;;;;;;-1.30;100.00;98121.88;4986210;28;20707;-55
2022/12/11 00:36:28;;;;;;;0.00;0.00;;;;;;;-1.31;100.00;98120.22;4989464;28;20308;-56
2022/12/11 00:38:55;;;;;;;0.00;0.00;;;;;;;-1.35;100.00;98120.38;4985075;28;20289;-56
2022/12/11 00:41:21;;;;;;;0.00;0.00;;;;;;;-1.33;100.00;98120.28;4985892;28;20246;-54
2022/12/11 00:43:48;;;;;;;0.00;0.00;;;;;;;-1.30;100.00;98126.97;4985677;28;20244;-54
2022/12/11 00:46:16;;;;;;;0.07;0.07;;;;;;;-1.29;100.00;98129.44;4990146;28;20232;-54
2022/12/11 00:48:43;;;;;;;0.00;0.00;;;;;;;-1.31;100.00;98133.00;4984821;28;20247;-56
2022/12/11 00:51:10;;;;;;;0.00;0.00;;;;;;;-1.38;100.00;98132.53;4987326;28;20238;-53
2022/12/11 00:53:37;;;;;;;0.00;0.00;;;;;;;-1.38;100.00;98127.41;4989104;28;20271;-56
2022/12/11 00:56:10;;;;;;;0.00;0.00;;;;;;;-1.38;100.00;98130.81;4985691;28;20287;-55
2022/12/11 00:58:37;;;;;;;0.00;0.00;;;;;;;-1.38;100.00;98135.94;4989004;28;20240;-56
2022/12/11 01:01:08;;;;;;;0.00;0.00;;;;;;;-1.38;100.00;98135.94;4982959;28;20245;-56
2022/12/11 01:03:37;;;;;;;0.00;0.00;;;;;;;-1.38;100.00;98140.22;4988672;28;20311;-56
2022/12/11 01:06:05;;;;;;;0.00;0.00;;;;;;;-1.42;100.00;98139.56;4979016;28;20293;-54
2022/12/11 01:08:32;;;;;;;0.00;0.00;;;;;;;-1.45;100.00;98139.75;4987158;28;20247;-54
2022/12/11 01:11:02;;;;;;;0.00;0.00;;;;;;;-1.42;100.00;98141.28;4984780;28;20310;-56
2022/12/11 01:13:28;;;;;;;0.00;0.00;;;;;;;-1.42;100.00;98154.09;4985052;28;20318;-55
2022/12/11 01:15:55;;;;;;;0.00;0.00;;;;;;;-1.42;100.00;98156.66;4983273;28;20829;-56
2022/12/11 01:18:22;;;;;;;0.00;0.00;;;;;;;-1.42;100.00;98154.94;4985293;28;20678;-53
2022/12/11 01:20:49;;;;;;;0.00;0.00;;;;;;;-1.40;100.00;98160.78;4983814;28;20663;-56
2022/12/11 01:23:16;;;;;;;0.00;0.00;;;;;;;-1.42;100.00;98165.16;4988310;28;20682;-54
2022/12/11 01:25:43;;;;;;;0.00;0.00;;;;;;;-1.38;100.00;98165.81;4984618;28;20231;-54
2022/12/11 01:28:10;;;;;;;0.00;0.00;;;;;;;-1.48;100.00;98166.31;4987324;28;21632;-55
2022/12/11 01:30:37;;;;;;;0.00;0.00;;;;;;;-1.52;100.00;98161.47;4984658;28;20317;-56
2022/12/11 01:33:04;;;;;;;0.00;0.00;;;;;;;-1.52;100.00;98164.03;4983465;28;20273;-56
2022/12/11 01:35:31;;;;;;;0.00;0.00;;;;;;;-1.52;100.00;98164.84;4986595;28;20260;-53
2022/12/11 01:37:59;;;;;;;0.10;0.10;;;;;;;-1.50;100.00;98168.16;4984885;28;20986;-56
2022/12/11 01:40:26;;;;;;;0.00;0.00;;;;;;;-1.63;100.00;98167.22;4986717;28;20235;-56
2022/12/11 01:42:52;;;;;;;0.00;0.00;;;;;;;-1.66;100.00;98167.38;4982645;28;20708;-56
2022/12/11 01:45:40;;;;;;;0.00;0.00;;;;;;;-1.64;100.00;98173.25;4985598;28;20344;-55
2022/12/11 01:48:11;;;;;;;0.00;0.00;;;;;;;-1.71;100.00;98177.84;4981311;28;20235;-56
2022/12/11 01:50:41;;;;;;;0.00;0.00;;;;;;;-1.75;100.00;98175.56;4985114;28;20690;-57
2022/12/11 01:53:13;;;;;;;0.00;0.00;;;;;;;-1.78;100.00;98171.41;4987301;28;20235;-54
2022/12/11 01:55:40;;;;;;;0.00;0.00;;;;;;;-1.76;100.00;98174.72;4983015;28;20636;-55
2022/12/11 01:58:10;;;;;;;0.00;0.00;;;;;;;-1.77;100.00;98172.25;4986725;28;20238;-53
2022/12/11 02:00:36;;;;;;;0.00;0.00;;;;;;;-1.75;100.00;98173.81;4985453;28;20302;-54
2022/12/11 02:03:03;;;;;;;0.00;0.00;;;;;;;-1.74;100.00;98167.78;4982286;28;20226;-54
2022/12/11 02:05:30;;;;;;;0.00;0.00;;;;;;;-1.73;100.00;98174.56;4983596;28;20239;-54
2022/12/11 02:07:59;;;;;;;0.00;0.00;;;;;;;-1.85;100.00;98173.50;4983043;28;20512;-52
2022/12/11 02:10:40;;;;;;;0.00;0.00;;;;;;;-1.84;100.00;98172.59;4987815;28;20244;-52
2022/12/11 02:13:13;;;;;;;0.00;0.00;;;;;;;-1.85;100.00;98173.50;4985523;28;20251;-54
2022/12/11 02:15:48;;;;;;;0.00;0.00;;;;;;;-1.79;100.00;98180.84;4980555;28;20238;-54
2022/12/11 02:18:23;;;;;;;0.00;0.00;;;;;;;-1.82;100.00;98180.16;4987168;28;20274;-55
2022/12/11 02:20:58;;;;;;;0.00;0.00;;;;;;;-1.83;100.00;98186.19;4983617;28;20695;-54
2022/12/11 02:23:53;;;;;;;0.00;0.00;;;;;;;-1.83;100.00;98194.72;4988480;28;20657;-55
2022/12/11 02:26:44;;;;;;;0.00;0.00;;;;;;;-1.81;100.00;98192.91;4980801;28;20279;-55
2022/12/11 02:29:17;;;;;;;0.00;0.00;;;;;;;-1.94;100.00;98191.91;4984092;28;20243;-55
2022/12/11 02:31:49;;;;;;;0.00;0.00;;;;;;;-1.94;100.00;98187.59;4984493;28;20244;-55
2022/12/11 02:34:22;;;;;;;0.00;0.00;;;;;;;-2.02;100.00;98191.50;4986163;28;20282;-55
2022/12/11 02:36:54;;;;;;;0.00;0.00;;;;;;;-2.08;100.00;98192.63;4984586;28;20215;-56
2022/12/11 02:39:22;;;;;;;0.00;0.00;;;;;;;-2.15;100.00;98186.22;4985727;28;20227;-56
2022/12/11 02:41:51;;;;;;;0.00;0.00;;;;;;;-2.16;100.00;98185.38;4982854;28;20228;-56
2022/12/11 02:44:23;;;;;;;0.00;0.00;;;;;;;-2.19;100.00;98179.59;4984993;28;20235;-55
2022/12/11 02:46:51;;;;;;;0.00;0.00;;;;;;;-2.21;100.00;98178.88;4985642;28;20232;-56
2022/12/11 02:49:19;;;;;;;0.10;0.10;;;;;;;-2.12;100.00;98165.59;4984243;28;20315;-57
2022/12/11 02:51:46;;;;;;;0.00;0.00;;;;;;;-2.21;100.00;98172.00;4987394;28;20230;-57
2022/12/11 02:54:19;;;;;;;0.00;0.00;;;;;;;-2.25;100.00;98163.69;4988199;28;20262;-57
2022/12/11 02:56:50;;;;;;;0.00;0.00;;;;;;;-2.33;100.00;98168.38;4984256;28;20305;-57
2022/12/11 02:59:21;;;;;;;0.00;0.00;;;;;;;-2.32;100.00;98166.63;4986777;28;20238;-55
2022/12/11 03:01:48;;;;;;;0.00;0.00;;;;;;;-2.32;100.00;98175.16;4981565;28;20236;-56
2022/12/11 03:04:15;;;;;;;0.00;0.00;;;;;;;-2.40;100.00;98172.16;4985784;28;20255;-57
2022/12/11 03:06:45;;;;;;;0.00;0.00;;;;;;;-2.32;100.00;98177.69;4980858;28;20653;-56
2022/12/11 03:09:12;;;;;;;0.00;0.00;;;;;;;-2.29;100.00;98174.13;4987154;28;20607;-56
2022/12/11 03:11:39;;;;;;;0.00;0.00;;;;;;;-2.27;100.00;98172.34;4982560;28;20225;-56
2022/12/11 03:14:07;;;;;;;0.00;0.00;;;;;;;-2.29;100.00;98167.31;4983651;28;20762;-57
2022/12/11 03:16:37;;;;;;;0.00;0.00;;;;;;;-2.31;100.00;98168.28;4988498;28;20631;-57
2022/12/11 03:19:14;;;;;;;0.00;0.00;;;;;;;-2.40;100.00;98162.75;4978366;28;20698;-57
2022/12/11 03:21:45;;;;;;;0.03;0.03;;;;;;;-2.39;100.00;98161.03;4982927;28;20242;-57
2022/12/11 03:24:17;;;;;;;0.00;0.00;;;;;;;-2.40;100.00;98167.03;4985051;28;20629;-57
2022/12/11 03:26:54;;;;;;;0.00;0.00;;;;;;;-2.37;100.00;98159.22;4982253;28;20230;-57
2022/12/11 03:29:25;;;;;;;0.00;0.00;;;;;;;-2.35;100.00;98165.06;4985862;28;20230;-57
2022/12/11 03:31:59;;;;;;;0.00;0.00;;;;;;;-2.32;100.00;98164.91;4983730;28;20237;-56
2022/12/11 03:34:31;;;;;;;0.07;0.07;;;;;;;-2.35;100.00;98167.63;4984346;28;20238;-57
2022/12/11 03:36:59;;;;;;;0.00;0.00;;;;;;;-2.37;100.00;98170.25;4983371;28;20232;-56
2022/12/11 03:39:31;;;;;;;0.00;0.00;;;;;;;-2.42;100.00;98176.53;4985702;28;20248;-56
2022/12/11 03:42:01;;;;;;;0.00;0.00;;;;;;;-2.39;100.00;98171.25;4991013;28;21928;-56
2022/12/11 03:44:29;;;;;;;0.00;0.00;;;;;;;-2.34;100.00;98173.56;4986656;28;20229;-55
2022/12/11 03:47:00;;;;;;;0.00;0.00;;;;;;;-2.26;100.00;98179.09;4983115;28;20246;-57
2022/12/11 03:49:31;;;;;;;0.00;0.00;;;;;;;-2.25;100.00;98183.31;4983247;28;20667;-55
2022/12/11 03:52:01;;;;;;;0.00;0.00;;;;;;;-2.19;100.00;98185.53;4984522;28;20235;-57
2022/12/11 03:54:29;;;;;;;0.00;0.00;;;;;;;-2.19;100.00;98177.88;4985979;28;20280;-57
2022/12/11 03:56:58;;;;;;;0.00;0.00;;;;;;;-2.21;100.00;98173.75;4980589;28;20243;-57
2022/12/11 03:59:24;;;;;;;0.00;0.00;;;;;;;-2.25;100.00;98173.06;4984933;28;20231;-57
2022/12/11 04:01:51;;;;;;;0.00;0.00;;;;;;;-2.31;100.00;98168.28;4982805;28;20281;-56
2022/12/11 04:04:19;;;;;;;0.00;0.00;;;;;;;-2.27;100.00;98169.78;4982158;28;20791;-57
2022/12/11 04:06:46;;;;;;;0.00;0.00;;;;;;;-2.30;100.00;98172.50;4983159;28;20231;-56
2022/12/11 04:09:13;;;;;;;0.10;0.10;;;;;;;-2.40;100.00;98165.31;4986210;28;20557;-57
2022/12/11 04:11:41;;;;;;;0.00;0.00;;;;;;;-2.40;100.00;98161.94;4981180;28;20235;-56
2022/12/11 04:16:55;;;;;;;0.00;0.00;;;;;;;-2.57;100.00;98161.09;4984368;28;20359;-57
2022/12/11 04:25:04;;;;;;;0.00;0.00;;;;;;;-2.61;100.00;98161.31;4982126;28;20243;-56
2022/12/11 04:27:49;;;;;;;0.00;0.00;;;;;;;-2.56;100.00;98156.78;4985660;28;20234;-57
2022/12/11 04:32:58;;;;;;;0.00;0.00;;;;;;;-2.64;100.00;98149.53;5002804;23;20232;-56
2022/12/11 04:35:26;;;;;;;0.00;0.00;;;;;;;-2.67;100.00;98152.25;4974309;28;20235;-55
2022/12/11 04:37:53;;;;;;;0.07;0.07;;;;;;;-2.65;100.00;98155.53;4971558;28;20229;-56
2022/12/11 04:40:20;;;;;;;0.00;0.00;;;;;;;-2.59;100.00;98156.94;4975413;28;20356;-56
2022/12/11 04:42:47;;;;;;;0.00;0.00;;;;;;;-2.60;100.00;98156.13;4975018;28;20242;-56
2022/12/11 04:45:14;;;;;;;0.00;0.00;;;;;;;-2.66;100.00;98159.00;4991867;23;20232;-57
2022/12/11 04:47:41;;;;;;;0.00;0.00;;;;;;;-2.64;100.00;98153.78;4971653;28;20258;-57
2022/12/11 04:50:11;;;;;;;0.00;0.00;;;;;;;-2.63;100.00;98146.06;4976868;28;20297;-57
2022/12/11 04:52:39;;;;;;;0.00;0.00;;;;;;;-2.63;100.00;98146.06;4974081;28;20630;-58
2022/12/11 04:55:07;;;;;;;0.00;0.00;;;;;;;-2.61;100.00;98148.53;4973441;28;20298;-57
2022/12/11 04:57:34;;;;;;;0.00;0.00;;;;;;;-2.66;100.00;98143.66;4974880;28;20226;-58
2022/12/11 05:00:01;;;;;;;0.00;0.00;;;;;;;-2.65;100.00;98135.09;4972145;28;20236;-58
2022/12/11 05:02:27;;;;;;;0.00;0.00;;;;;;;-2.67;100.00;98130.09;4971633;28;20630;-58
2022/12/11 05:04:54;;;;;;;0.00;0.00;;;;;;;-2.63;100.00;98128.19;4968219;28;20626;-57
2022/12/11 05:07:20;;;;;;;0.00;0.00;;;;;;;-2.56;100.00;98129.50;4974810;28;20661;-57
2022/12/11 05:09:48;;;;;;;0.00;0.00;;;;;;;-2.67;100.00;98130.09;4971172;28;20243;-57
2022/12/11 05:12:15;;;;;;;0.00;0.00;;;;;;;-2.62;100.00;98123.88;4977863;28;20246;-57
2022/12/11 05:14:41;;;;;;;0.03;0.03;;;;;;;-2.61;100.00;98126.38;4970450;28;20254;-58
2022/12/11 05:17:08;;;;;;;0.00;0.00;;;;;;;-2.60;100.00;98129.72;4974602;28;20237;-58
2022/12/11 05:19:34;;;;;;;0.00;0.00;;;;;;;-2.60;100.00;98125.47;4976618;28;20786;-57
2022/12/11 05:22:01;;;;;;;0.00;0.00;;;;;;;-2.53;100.00;98125.97;4971362;28;20776;-57
2022/12/11 05:24:28;;;;;;;0.07;0.07;;;;;;;-2.52;100.00;98123.34;4975271;28;20232;-57
2022/12/11 05:26:56;;;;;;;0.00;0.00;;;;;;;-2.64;100.00;98120.59;4974029;28;20287;-58
2022/12/11 05:29:22;;;;;;;0.00;0.00;;;;;;;-2.73;100.00;98115.06;4974231;28;20225;-57
2022/12/11 05:31:49;;;;;;;0.00;0.00;;;;;;;-2.77;100.00;98113.59;4970285;28;20241;-57
2022/12/11 05:34:15;;;;;;;0.00;0.00;;;;;;;-2.71;100.00;98118.38;4976808;28;20231;-58
2022/12/11 05:36:42;;;;;;;0.00;0.00;;;;;;;-2.77;100.00;98113.59;4972139;28;20249;-58
2022/12/11 05:39:09;;;;;;;0.00;0.00;;;;;;;-2.80;100.00;98110.34;4974658;28;20261;-58
2022/12/11 05:41:35;;;;;;;0.00;0.00;;;;;;;-2.82;100.00;98110.44;4975572;28;20251;-57
2022/12/11 05:44:03;;;;;;;0.00;0.00;;;;;;;-2.84;100.00;98112.25;4973250;28;20281;-59
2022/12/11 05:46:30;;;;;;;0.00;0.00;;;;;;;-2.87;100.00;98097.88;4964966;28;20920;-58
2022/12/11 05:49:00;;;;;;;0.00;0.00;;;;;;;-2.87;100.00;98103.00;4971561;28;20236;-57
2022/12/11 05:51:28;;;;;;;0.10;0.10;;;;;;;-2.93;100.00;98097.41;4970066;28;20236;-58
2022/12/11 05:53:55;;;;;;;0.00;0.00;;;;;;;-2.92;100.00;98086.28;4974503;28;20231;-58
2022/12/11 05:56:25;;;;;;;0.00;0.00;;;;;;;-3.03;100.00;98091.91;4974854;28;20768;-58
2022/12/11 05:58:52;;;;;;;0.00;0.00;;;;;;;-3.00;100.00;98090.03;4975510;28;20247;-59
2022/12/11 06:01:24;;;;;;;0.00;0.00;;;;;;;-3.00;100.00;98091.75;4973022;28;20239;-58
2022/12/11 06:03:50;;;;;;;0.03;0.03;;;;;;;-3.02;100.00;98088.47;4970544;28;21258;-58
2022/12/11 06:06:17;;;;;;;0.00;0.00;;;;;;;-3.05;100.00;98088.63;4974437;28;20685;-59
2022/12/11 06:08:44;;;;;;;0.00;0.00;;;;;;;-3.10;100.00;98086.31;4971336;28;20239;-58
2022/12/11 06:11:12;;;;;;;0.00;0.00;;;;;;;-3.15;100.00;98089.06;4973106;28;20238;-59
2022/12/11 06:13:39;;;;;;;0.00;0.00;;;;;;;-3.19;100.00;98081.66;4971441;28;20312;-58
2022/12/11 06:16:08;;;;;;;0.00;0.00;;;;;;;-3.24;100.00;98078.53;4968468;28;20765;-58
2022/12/11 06:18:38;;;;;;;0.00;0.00;;;;;;;-3.23;100.00;98075.91;4973978;28;20620;-58
2022/12/11 06:21:12;;;;;;;0.00;0.00;;;;;;;-3.19;100.00;98077.41;4970452;28;20274;-59
2022/12/11 06:23:39;;;;;;;0.07;0.07;;;;;;;-3.20;100.00;98085.97;4972531;28;20305;-58
2022/12/11 06:26:05;;;;;;;0.00;0.00;;;;;;;-3.21;100.00;98083.47;4971573;28;20243;-58
2022/12/11 06:28:32;;;;;;;0.00;0.00;;;;;;;-3.24;100.00;98078.53;4970111;28;20877;-59
2022/12/11 06:30:58;;;;;;;0.00;0.00;;;;;;;-3.25;100.00;98077.72;4967699;28;20242;-58
2022/12/11 06:33:25;;;;;;;0.10;0.10;;;;;;;-3.26;100.00;98074.31;4968853;28;20250;-58
2022/12/11 06:35:53;;;;;;;0.00;0.00;;;;;;;-3.29;100.00;98068.56;4970655;28;20288;-58
2022/12/11 06:38:19;;;;;;;0.10;0.10;;;;;;;-3.24;100.00;98084.47;4972272;28;20236;-58
2022/12/11 06:40:46;;;;;;;0.00;0.00;;;;;;;-3.16;100.00;98086.63;4969379;28;20315;-58
2022/12/11 06:43:13;;;;;;;0.00;0.00;;;;;;;-3.13;100.00;98077.06;4971255;28;20239;-59
2022/12/11 06:45:39;;;;;;;0.00;0.00;;;;;;;-3.19;100.00;98081.66;4974576;28;20228;-59
2022/12/11 06:48:06;;;;;;;0.00;0.00;;;;;;;-3.20;100.00;98080.84;4972612;28;20729;-58
2022/12/11 06:50:33;;;;;;;0.00;0.00;;;;;;;-3.20;100.00;98078.31;4973651;28;20234;-59
2022/12/11 06:53:01;;;;;;;0.00;0.00;;;;;;;-3.18;100.00;98079.03;4970752;28;20323;-57
2022/12/11 06:55:27;;;;;;;0.10;0.10;;;;;;;-3.11;100.00;98082.09;4973072;28;20236;-58
2022/12/11 06:57:54;;;;;;;0.00;0.00;;;;;;;-3.09;100.00;98080.31;4967221;28;20235;-59
2022/12/11 07:00:21;;;;;;;0.00;0.00;;;;;;;-3.14;100.00;98085.63;4973074;28;20253;-59
2022/12/11 07:02:47;;;;;;;0.00;0.00;;;;;;;-3.16;100.00;98084.06;4971276;28;20231;-58
2022/12/11 07:05:14;;;;;;;0.00;0.00;;;;;;;-3.17;100.00;98084.97;4974550;28;20233;-58
2022/12/11 07:07:40;;;;;;;0.10;0.10;;;;;;;-3.19;100.00;98090.16;4968561;28;20275;-58
2022/12/11 07:10:09;;;;;;;0.00;0.00;;;;;;;-3.14;100.00;98095.03;4971535;28;20625;-59
2022/12/11 07:12:37;;;;;;;0.00;0.00;;;;;;;-3.11;100.00;98105.91;4970798;28;20579;-58
2022/12/11 07:15:04;;;;;;;0.00;0.00;;;;;;;-3.04;100.00;98108.97;4982272;28;20239;-59
2022/12/11 07:17:30;;;;;;;0.00;0.00;;;;;;;-2.96;100.00;98106.03;4969977;28;20602;-59
2022/12/11 07:19:57;;;;;;;0.00;0.00;;;;;;;-2.94;100.00;98111.88;4967902;28;20228;-58
2022/12/11 07:22:24;;;;;;;0.07;0.07;;;;;;;-2.90;100.00;98103.16;4973240;28;20286;-59
2022/12/11 07:24:51;;;;;;;0.00;0.00;;;;;;;-2.87;100.00;98097.88;4971458;28;20242;-59
2022/12/11 07:27:18;;;;;;;0.00;0.00;;;;;;;-2.82;100.00;98100.22;4974281;28;20221;-58
2022/12/11 07:29:45;;;;;;;0.03;0.03;;;;;;;-2.79;100.00;98097.50;4962493;28;20234;-58
2022/12/11 07:32:12;;;;;;;0.10;0.10;;;;;;;-2.77;100.00;98097.41;4972895;28;20697;-59
2022/12/11 07:34:38;;;;;;;0.00;0.00;;;;;;;-2.75;100.00;98098.16;4971156;28;20238;-59
2022/12/11 07:37:05;;;;;;;0.00;0.00;;;;;;;-2.76;100.00;98104.16;4968157;28;20233;-59
2022/12/11 07:39:32;;;;;;;0.00;0.00;;;;;;;-2.71;100.00;98099.66;4974445;28;20223;-58
2022/12/11 07:41:58;;;;;;;0.10;0.10;;;;;;;-2.64;100.00;98100.13;4969223;28;20242;-59
2022/12/11 07:44:26;;;;;;;0.00;0.00;;;;;;;-2.56;100.00;98100.56;4975230;28;20222;-59
2022/12/11 07:46:53;;;;;;;0.00;0.00;;;;;;;-2.52;100.00;98102.88;4968514;28;20238;-58
2022/12/11 07:49:19;;;;;;;0.00;0.00;;;;;;;-2.43;100.00;98113.53;4973550;28;20272;-58
2022/12/11 07:51:46;;;;;;;0.00;0.00;;;;;;;-2.42;100.00;98120.28;4966922;28;20318;-58
2022/12/11 07:54:15;;;;;;;0.00;0.00;;;;;;;-2.38;100.00;98117.47;4972904;28;20234;-58
2022/12/11 07:56:42;;;;;;;0.00;0.00;;;;;;;-2.37;100.00;98119.13;4971528;28;20573;-58
2022/12/11 07:59:09;;;;;;;0.00;0.00;;;;;;;-2.32;100.00;98120.63;4971818;28;20727;-57
2022/12/11 08:01:37;;;;;;;0.00;0.00;;;;;;;-2.28;100.00;98125.50;4969989;28;20711;-57
2022/12/11 08:04:05;;;;;;;0.00;0.00;;;;;;;-2.18;100.00;98125.00;4969244;28;20611;-57
2022/12/11 08:06:34;;;;;;;0.00;0.00;;;;;;;-2.18;100.00;98136.03;4969936;28;20224;-58
2022/12/11 08:09:04;;;;;;;0.00;0.00;;;;;;;-2.18;100.00;98125.81;4965260;28;20248;-59
2022/12/11 08:11:31;;;;;;;0.00;0.00;;;;;;;-2.23;100.00;98132.91;4969151;28;20717;-58
2022/12/11 08:13:59;;;;;;;0.00;0.00;;;;;;;-2.12;100.00;98134.91;4967381;28;20590;-58
2022/12/11 08:16:26;;;;;;;0.00;0.00;;;;;;;-2.12;100.00;98134.91;4977550;28;20743;-60
2022/12/11 08:18:54;;;;;;;0.00;0.00;;;;;;;-2.20;100.00;98134.50;4968975;28;20236;-58
2022/12/11 08:21:25;;;;;;;0.00;0.00;;;;;;;-2.22;100.00;98129.44;4975931;28;20294;-58
2022/12/11 08:23:53;;;;;;;0.00;0.00;;;;;;;-2.16;100.00;98128.31;4971699;28;20236;-57
2022/12/11 08:26:23;;;;;;;0.00;0.00;;;;;;;-2.09;100.00;98122.75;4968421;28;20251;-58
2022/12/11 08:28:49;;;;;;;0.10;0.10;;;;;;;-1.99;100.00;98127.38;4963070;28;20227;-57
2022/12/11 08:31:17;;;;;;;0.00;0.00;;;;;;;-1.93;100.00;98127.03;4975860;28;20228;-58
2022/12/11 08:33:44;;;;;;;0.00;0.00;;;;;;;-1.82;100.00;98129.84;4971563;28;20235;-58
2022/12/11 08:36:13;;;;;;;0.00;0.00;;;;;;;-1.94;100.00;98128.75;4970922;28;20236;-58
2022/12/11 08:38:40;;;;;;;0.00;0.00;;;;;;;-2.06;100.00;98133.72;4971713;28;20223;-58
2022/12/11 08:41:12;;;;;;;0.07;0.07;;;;;;;-2.04;100.00;98126.81;4977594;28;20227;-58
2022/12/11 08:43:38;;;;;;;0.10;0.10;;;;;;;-1.96;100.00;98133.13;4971134;28;20232;-57
2022/12/11 08:46:06;;;;;;;0.00;0.00;;;;;;;-1.87;100.00;98138.66;4973431;28;20246;-59
2022/12/11 08:48:33;;;;;;;0.00;0.00;;;;;;;-1.83;100.00;98133.31;4973296;28;20223;-58
2022/12/11 08:51:01;;;;;;;0.00;0.00;;;;;;;-1.80;100.00;98129.75;4975249;28;20278;-57
2022/12/11 08:53:30;;;;;;;0.00;0.00;;;;;;;-1.71;100.00;98121.56;4977401;28;20697;-58
2022/12/11 08:56:01;;;;;;;0.10;0.10;;;;;;;-1.63;100.00;98126.25;4976121;28;20945;-58
2022/12/11 08:58:28;;;;;;;0.00;0.00;;;;;;;-1.56;100.00;98126.72;4974007;28;20220;-58
2022/12/11 09:00:54;;;;;;;0.00;0.00;;;;;;;-1.46;100.00;98112.50;4975677;28;20246;-59
2022/12/11 09:03:21;;;;;;;0.00;0.00;;;;;;;-1.32;100.00;98113.44;4974145;28;20230;-58
2022/12/11 09:05:47;;;;;;;0.00;0.00;;;;;;;-1.37;100.00;98111.97;4972855;28;20227;-58
2022/12/11 09:08:14;;;;;;;0.00;0.00;;;;;;;-1.34;100.00;98111.78;4973889;28;20773;-57
2022/12/11 09:10:42;;;;;;;0.00;0.00;;;;;;;-1.13;100.00;98108.06;4971574;28;20251;-58
2022/12/11 09:13:09;;;;;;;0.00;0.00;;;;;;;-1.04;100.00;98105.78;4977513;28;20232;-57
2022/12/11 09:15:37;;;;;;;0.00;0.00;;;;;;;-1.22;100.00;98107.69;4975652;28;20313;-58
2022/12/11 09:18:03;;;;;;;0.00;0.00;;;;;;;-1.20;100.00;98102.50;4971863;28;20265;-58
2022/12/11 09:20:30;;;;;;;0.00;0.00;;;;;;;-1.02;100.00;98094.63;4973748;28;20234;-57
2022/12/11 09:22:57;;;;;;;0.00;0.00;;;;;;;-1.01;100.00;98099.66;4971432;28;20229;-59
2022/12/11 09:25:23;;;;;;;0.00;0.00;;;;;;;-0.88;100.00;98102.31;4972198;28;20223;-58
2022/12/11 09:27:51;;;;;;;0.00;0.00;;;;;;;-0.73;100.00;98104.88;4969200;28;20244;-59
2022/12/11 09:30:18;;;;;;;0.00;0.00;;;;;;;-0.81;100.00;98105.34;4972584;28;20589;-59
2022/12/11 09:32:44;;;;;;;0.00;0.00;;;;;;;-1.06;100.00;98099.91;4974930;28;20243;-59
2022/12/11 09:35:11;;;;;;;0.00;0.00;;;;;;;-0.98;100.00;98101.19;4973395;28;20239;-58
2022/12/11 09:37:38;;;;;;;0.00;0.00;;;;;;;-0.86;100.00;98105.59;4971292;28;20804;-58
2022/12/11 09:40:05;;;;;;;0.00;0.00;;;;;;;-0.92;100.00;98095.72;4969879;28;20234;-58
2022/12/11 09:42:47;;;;;;;0.00;0.00;;;;;;;-0.70;100.00;98099.56;4974499;28;20236;-58
2022/12/11 09:45:16;;;;;;;0.00;0.00;;;;;;;-0.73;99.25;98099.75;4971303;28;20232;-58
2022/12/11 09:47:45;;;;;;;0.00;0.00;;;;;;;-0.77;99.16;98094.81;4952984;28;20234;-58
2022/12/11 09:50:17;;;;;;;0.00;0.00;;;;;;;-0.57;99.46;98092.78;4976496;28;20248;-58
2022/12/11 09:52:56;;;;;;;0.00;0.00;;;;;;;-0.55;98.81;98088.38;4970021;28;20705;-59
2022/12/11 09:55:24;;;;;;;0.00;0.00;;;;;;;-0.50;97.90;98088.94;4973048;28;20240;-57
2022/12/11 09:57:59;;;;;;;0.00;0.00;;;;;;;-0.57;97.86;98089.41;4970010;28;20255;-58
2022/12/11 10:00:33;;;;;;;0.00;0.00;;;;;;;-0.75;97.26;98085.28;4973037;28;20242;-58
2022/12/11 10:03:45;;;;;;;0.00;0.00;;;;;;;-0.67;97.86;98082.28;4970928;28;20691;-59
2022/12/11 10:06:19;;;;;;;0.00;0.00;;;;;;;-0.41;94.99;98073.91;4953994;28;20793;-58
2022/12/11 10:08:57;;;;;;;0.00;0.00;;;;;;;-0.25;93.73;98074.59;4969426;28;20226;-58
2022/12/11 10:11:40;;;;;;;0.00;0.00;;;;;;;-0.28;93.31;98066.25;4974447;28;20225;-58
2022/12/11 10:14:13;;;;;;;0.00;0.00;;;;;;;-0.18;93.08;98063.03;4969978;28;20233;-58
2022/12/11 10:16:44;;;;;;;0.00;0.00;;;;;;;-0.14;92.31;98053.38;4971747;28;20328;-58
2022/12/11 10:19:16;;;;;;;0.00;0.00;;;;;;;-0.05;92.78;98044.28;4961496;28;20599;-58
2022/12/11 10:21:43;;;;;;;0.00;0.00;;;;;;;-0.17;90.60;98035.63;4973769;28;20289;-58
2022/12/11 10:24:16;;;;;;;0.00;0.00;;;;;;;0.02;90.20;98040.38;4974294;28;20237;-58
2022/12/11 10:26:43;;;;;;;0.00;0.00;;;;;;;0.21;89.23;98034.91;4971708;28;20229;-58
2022/12/11 10:29:14;;;;;;;0.00;0.00;;;;;;;0.44;89.53;98043.66;4973942;28;20244;-59
2022/12/11 10:31:50;;;;;;;0.10;0.10;;;;;;;0.46;89.38;98045.31;4970768;28;20272;-59
2022/12/11 10:34:27;;;;;;;0.03;0.03;;;;;;;0.53;88.76;98039.66;4971049;28;20303;-58
2022/12/11 10:36:55;;;;;;;0.00;0.00;;;;;;;0.60;87.10;98037.50;4969824;28;20221;-58
2022/12/11 10:39:22;;;;;;;0.00;0.00;;;;;;;0.54;87.30;98033.59;4973266;28;20243;-59
2022/12/11 10:41:50;;;;;;;0.00;0.00;;;;;;;0.36;87.29;98022.78;4966194;28;20317;-59
2022/12/11 10:44:19;;;;;;;0.00;0.00;;;;;;;0.28;87.70;98028.44;4969741;28;20231;-60
2022/12/11 10:46:47;;;;;;;0.00;0.00;;;;;;;0.28;88.66;98023.31;5002712;23;20224;-51
2022/12/11 10:49:23;;;;;;;0.00;0.00;;;;;;;0.31;88.67;98019.72;5073903;23;20275;-57
2022/12/11 10:51:51;;;;;;;0.00;0.00;;;;;;;0.36;87.41;98017.66;4983422;28;20712;-56
2022/12/11 10:54:30;;;;;;;0.00;0.00;;;;;;;0.26;87.09;98014.06;4984623;28;20266;-55
2022/12/11 10:56:57;;;;;;;0.00;0.00;;;;;;;0.13;88.11;98017.41;4981556;28;20273;-55
2022/12/11 10:59:30;;;;;;;0.00;0.00;;;;;;;0.26;89.21;98016.63;4987569;28;20244;-55
2022/12/11 11:01:58;;;;;;;0.00;0.00;;;;;;;0.36;88.42;98016.84;4982223;28;20271;-55
2022/12/11 11:04:35;;;;;;;0.00;0.00;;;;;;;0.34;87.99;98009.25;4985926;28;20279;-57
2022/12/11 11:07:10;;;;;;;0.00;0.00;;;;;;;0.39;87.81;98008.94;4932533;28;21842;-57
2022/12/11 11:09:42;;;;;;;0.00;0.00;;;;;;;0.25;87.24;98008.09;4967234;28;20702;-56
2022/12/11 11:12:25;;;;;;;0.00;0.00;;;;;;;0.18;88.22;97996.59;4919001;28;20225;-54
2022/12/11 11:15:07;;;;;;;0.00;0.00;;;;;;;0.42;88.51;98006.97;4945636;28;20218;-56
2022/12/11 11:18:04;;;;;;;0.00;0.00;;;;;;;0.42;88.59;98004.41;4998348;28;20807;-57
2022/12/11 11:20:37;;;;;;;0.00;0.00;;;;;;;0.57;87.70;98004.31;4967918;28;20316;-56
2022/12/11 11:23:20;;;;;;;0.00;0.00;;;;;;;0.34;88.73;97998.97;4869826;28;20768;-58
2022/12/11 11:25:54;;;;;;;0.00;0.00;;;;;;;0.50;89.15;98005.66;4924659;28;20319;-54
2022/12/11 11:28:34;;;;;;;0.00;0.00;;;;;;;0.46;89.22;97996.50;4973563;28;20236;-58
2022/12/11 11:31:04;;;;;;;0.10;0.10;;;;;;;0.42;90.06;98006.97;4903400;28;20242;-55
2022/12/11 11:33:35;;;;;;;0.00;0.00;;;;;;;0.44;88.86;98009.47;4946636;28;20271;-57
2022/12/11 11:36:21;;;;;;;0.00;0.00;;;;;;;0.44;88.85;98005.13;4894155;28;20227;-59
2022/12/11 11:39:15;;;;;;;0.00;0.00;;;;;;;0.41;90.86;98002.78;4884773;29;20305;-56
2022/12/11 11:41:52;;;;;;;0.00;0.00;;;;;;;0.29;91.17;98001.00;4918760;28;20229;-56
2022/12/11 11:44:33;;;;;;;0.00;0.00;;;;;;;0.30;90.87;98002.66;4885222;29;20234;-55
2022/12/11 11:47:09;;;;;;;0.00;0.00;;;;;;;-0.07;92.83;97993.06;4866480;28;20404;-57
2022/12/11 11:49:56;;;;;;;0.00;0.00;;;;;;;-0.09;93.32;97996.66;4926302;28;20270;-55